Aslo, Minnesota
Current Conditions -  °F | °C
As of 5:13 AM on Friday 28 Nov 2014 (Local Time) from KMZH Reporting Station
Light Snow Light Snow  
Wind Chill: 10°   Ceiling: 3500
Heat Index: 10°   Visibility: 5mi
Dew Point:   Wind: 3mph
Humidity: 79%   Direction: 120°ESE
Pressure: 30.06"   Gusts: NA
Location:  46.2004°N, 92.675°W
Report Text: KMZH 281113Z AUTO 12003KT 5SM -SN SCT028 OVC035 M12/M15 A3006 RMK AO2
Loading
Personal Weather Stations






























Interactive Weather Map New forecast layout! Learn more

10-Day Weather Forecast

Advertisements
Track Severe Weather on mobile